sensor_id;sensor_type;location;lat;lon;timestamp;P1;durP1;ratioP1;P2;durP2;ratioP2
60722;SDS011;46574;52.818;6.516;2023-12-20T00:00:25;7.65;;;2.58;;
60722;SDS011;46574;52.818;6.516;2023-12-20T00:02:51;8.40;;;2.33;;
60722;SDS011;46574;52.818;6.516;2023-12-20T00:05:16;9.25;;;2.35;;
60722;SDS011;46574;52.818;6.516;2023-12-20T00:07:42;9.13;;;2.17;;
60722;SDS011;46574;52.818;6.516;2023-12-20T00:10:08;10.52;;;1.95;;
60722;SDS011;46574;52.818;6.516;2023-12-20T00:12:34;13.23;;;2.58;;
60722;SDS011;46574;52.818;6.516;2023-12-20T00:14:59;10.85;;;2.40;;
60722;SDS011;46574;52.818;6.516;2023-12-20T00:17:26;5.78;;;2.00;;
60722;SDS011;46574;52.818;6.516;2023-12-20T00:19:51;12.48;;;2.50;;
60722;SDS011;46574;52.818;6.516;2023-12-20T00:22:17;9.52;;;2.15;;
60722;SDS011;46574;52.818;6.516;2023-12-20T00:24:43;8.27;;;2.17;;
60722;SDS011;46574;52.818;6.516;2023-12-20T00:27:08;9.45;;;2.13;;
60722;SDS011;46574;52.818;6.516;2023-12-20T00:29:34;8.27;;;1.83;;
60722;SDS011;46574;52.818;6.516;2023-12-20T00:32:00;8.95;;;2.00;;
60722;SDS011;46574;52.818;6.516;2023-12-20T00:34:25;10.68;;;2.50;;
60722;SDS011;46574;52.818;6.516;2023-12-20T00:36:51;10.10;;;2.67;;
60722;SDS011;46574;52.818;6.516;2023-12-20T00:39:16;9.75;;;2.25;;
60722;SDS011;46574;52.818;6.516;2023-12-20T00:41:42;9.35;;;2.05;;
60722;SDS011;46574;52.818;6.516;2023-12-20T00:44:08;7.82;;;2.10;;
60722;SDS011;46574;52.818;6.516;2023-12-20T00:46:33;15.13;;;2.55;;
60722;SDS011;46574;52.818;6.516;2023-12-20T00:48:59;5.82;;;2.40;;
60722;SDS011;46574;52.818;6.516;2023-12-20T00:51:24;9.13;;;2.20;;
60722;SDS011;46574;52.818;6.516;2023-12-20T00:53:50;7.90;;;2.17;;
60722;SDS011;46574;52.818;6.516;2023-12-20T00:56:19;6.90;;;2.50;;
60722;SDS011;46574;52.818;6.516;2023-12-20T00:58:47;8.02;;;2.70;;
60722;SDS011;46574;52.818;6.516;2023-12-20T01:01:12;15.95;;;2.78;;
60722;SDS011;46574;52.818;6.516;2023-12-20T01:03:38;9.43;;;2.33;;
60722;SDS011;46574;52.818;6.516;2023-12-20T01:06:04;12.68;;;2.40;;
60722;SDS011;46574;52.818;6.516;2023-12-20T01:08:30;11.75;;;3.10;;
60722;SDS011;46574;52.818;6.516;2023-12-20T01:10:56;8.68;;;2.63;;
60722;SDS011;46574;52.818;6.516;2023-12-20T01:13:21;10.35;;;2.22;;
60722;SDS011;46574;52.818;6.516;2023-12-20T01:15:47;10.63;;;2.72;;
60722;SDS011;46574;52.818;6.516;2023-12-20T01:18:13;8.02;;;2.40;;
60722;SDS011;46574;52.818;6.516;2023-12-20T01:20:40;8.68;;;2.90;;
60722;SDS011;46574;52.818;6.516;2023-12-20T01:23:05;10.32;;;3.25;;
60722;SDS011;46574;52.818;6.516;2023-12-20T01:25:31;9.75;;;2.78;;
60722;SDS011;46574;52.818;6.516;2023-12-20T01:27:57;8.85;;;2.25;;
60722;SDS011;46574;52.818;6.516;2023-12-20T01:30:22;10.30;;;2.50;;
60722;SDS011;46574;52.818;6.516;2023-12-20T01:32:49;10.90;;;2.55;;
60722;SDS011;46574;52.818;6.516;2023-12-20T01:35:14;14.55;;;2.70;;
60722;SDS011;46574;52.818;6.516;2023-12-20T01:37:40;10.48;;;2.85;;
60722;SDS011;46574;52.818;6.516;2023-12-20T01:40:06;12.68;;;2.70;;
60722;SDS011;46574;52.818;6.516;2023-12-20T01:42:33;15.57;;;2.90;;
60722;SDS011;46574;52.818;6.516;2023-12-20T01:45:00;11.35;;;2.53;;
60722;SDS011;46574;52.818;6.516;2023-12-20T01:47:25;12.40;;;2.58;;
60722;SDS011;46574;52.818;6.516;2023-12-20T01:49:52;13.85;;;3.25;;
60722;SDS011;46574;52.818;6.516;2023-12-20T01:52:18;13.90;;;2.65;;
60722;SDS011;46574;52.818;6.516;2023-12-20T01:54:45;12.73;;;3.55;;
60722;SDS011;46574;52.818;6.516;2023-12-20T01:57:12;10.98;;;3.03;;
60722;SDS011;46574;52.818;6.516;2023-12-20T01:59:39;11.10;;;3.25;;
60722;SDS011;46574;52.818;6.516;2023-12-20T02:02:05;14.13;;;3.15;;
60722;SDS011;46574;52.818;6.516;2023-12-20T02:04:32;13.13;;;3.22;;
60722;SDS011;46574;52.818;6.516;2023-12-20T02:06:58;10.60;;;2.78;;
60722;SDS011;46574;52.818;6.516;2023-12-20T02:09:24;17.08;;;2.95;;
60722;SDS011;46574;52.818;6.516;2023-12-20T02:11:50;15.68;;;3.40;;
60722;SDS011;46574;52.818;6.516;2023-12-20T02:14:15;11.02;;;3.08;;
60722;SDS011;46574;52.818;6.516;2023-12-20T02:16:41;13.77;;;2.80;;
60722;SDS011;46574;52.818;6.516;2023-12-20T02:19:09;14.27;;;3.00;;
60722;SDS011;46574;52.818;6.516;2023-12-20T02:21:40;11.13;;;3.13;;
60722;SDS011;46574;52.818;6.516;2023-12-20T02:24:05;13.45;;;2.92;;
60722;SDS011;46574;52.818;6.516;2023-12-20T02:26:34;12.25;;;2.88;;
60722;SDS011;46574;52.818;6.516;2023-12-20T02:31:26;14.27;;;3.30;;
60722;SDS011;46574;52.818;6.516;2023-12-20T02:33:52;12.45;;;2.78;;
60722;SDS011;46574;52.818;6.516;2023-12-20T02:36:17;15.18;;;3.45;;
60722;SDS011;46574;52.818;6.516;2023-12-20T02:38:43;19.88;;;3.25;;
60722;SDS011;46574;52.818;6.516;2023-12-20T02:41:09;14.63;;;3.42;;
60722;SDS011;46574;52.818;6.516;2023-12-20T02:43:34;10.25;;;2.97;;
60722;SDS011;46574;52.818;6.516;2023-12-20T02:46:00;16.98;;;3.65;;
60722;SDS011;46574;52.818;6.516;2023-12-20T02:48:25;11.75;;;3.00;;
60722;SDS011;46574;52.818;6.516;2023-12-20T02:50:51;13.43;;;3.40;;
60722;SDS011;46574;52.818;6.516;2023-12-20T02:53:17;14.95;;;4.22;;
60722;SDS011;46574;52.818;6.516;2023-12-20T02:55:43;13.07;;;3.08;;
60722;SDS011;46574;52.818;6.516;2023-12-20T02:58:08;17.25;;;3.15;;
60722;SDS011;46574;52.818;6.516;2023-12-20T03:00:34;15.32;;;3.80;;
60722;SDS011;46574;52.818;6.516;2023-12-20T03:02:59;14.07;;;3.67;;
60722;SDS011;46574;52.818;6.516;2023-12-20T03:05:25;12.48;;;3.25;;
60722;SDS011;46574;52.818;6.516;2023-12-20T03:07:51;15.32;;;3.72;;
60722;SDS011;46574;52.818;6.516;2023-12-20T03:10:17;15.70;;;4.13;;
60722;SDS011;46574;52.818;6.516;2023-12-20T03:12:43;13.25;;;2.90;;
60722;SDS011;46574;52.818;6.516;2023-12-20T03:15:10;17.58;;;3.70;;
60722;SDS011;46574;52.818;6.516;2023-12-20T03:17:35;14.77;;;3.63;;
60722;SDS011;46574;52.818;6.516;2023-12-20T03:20:01;13.77;;;3.42;;
60722;SDS011;46574;52.818;6.516;2023-12-20T03:22:27;16.00;;;4.18;;
60722;SDS011;46574;52.818;6.516;2023-12-20T03:24:53;19.50;;;4.10;;
60722;SDS011;46574;52.818;6.516;2023-12-20T03:27:18;18.23;;;3.83;;
60722;SDS011;46574;52.818;6.516;2023-12-20T03:29:44;13.65;;;3.65;;
60722;SDS011;46574;52.818;6.516;2023-12-20T03:32:10;21.75;;;4.43;;
60722;SDS011;46574;52.818;6.516;2023-12-20T03:34:35;16.90;;;4.53;;
60722;SDS011;46574;52.818;6.516;2023-12-20T03:37:02;14.77;;;3.83;;
60722;SDS011;46574;52.818;6.516;2023-12-20T03:39:28;13.85;;;4.35;;
60722;SDS011;46574;52.818;6.516;2023-12-20T03:41:54;15.95;;;4.68;;
60722;SDS011;46574;52.818;6.516;2023-12-20T03:44:19;18.52;;;4.63;;
60722;SDS011;46574;52.818;6.516;2023-12-20T03:46:45;16.83;;;3.90;;
60722;SDS011;46574;52.818;6.516;2023-12-20T03:49:11;19.90;;;4.80;;
60722;SDS011;46574;52.818;6.516;2023-12-20T03:51:37;17.98;;;3.97;;
60722;SDS011;46574;52.818;6.516;2023-12-20T03:54:02;17.33;;;4.18;;
60722;SDS011;46574;52.818;6.516;2023-12-20T03:56:28;18.98;;;4.53;;
60722;SDS011;46574;52.818;6.516;2023-12-20T03:58:54;15.23;;;3.92;;
60722;SDS011;46574;52.818;6.516;2023-12-20T04:01:19;17.92;;;4.40;;
60722;SDS011;46574;52.818;6.516;2023-12-20T04:03:45;17.50;;;4.63;;
60722;SDS011;46574;52.818;6.516;2023-12-20T04:06:16;18.92;;;4.20;;
60722;SDS011;46574;52.818;6.516;2023-12-20T04:08:42;22.02;;;4.55;;
60722;SDS011;46574;52.818;6.516;2023-12-20T04:11:08;20.35;;;4.80;;
60722;SDS011;46574;52.818;6.516;2023-12-20T04:13:33;18.85;;;4.38;;
60722;SDS011;46574;52.818;6.516;2023-12-20T04:15:59;20.88;;;4.88;;
60722;SDS011;46574;52.818;6.516;2023-12-20T04:18:25;19.77;;;4.13;;
60722;SDS011;46574;52.818;6.516;2023-12-20T04:20:50;18.17;;;4.38;;
60722;SDS011;46574;52.818;6.516;2023-12-20T04:23:16;17.30;;;4.40;;
60722;SDS011;46574;52.818;6.516;2023-12-20T04:25:42;20.48;;;4.55;;
60722;SDS011;46574;52.818;6.516;2023-12-20T04:28:08;21.13;;;5.53;;
60722;SDS011;46574;52.818;6.516;2023-12-20T04:30:33;20.05;;;4.57;;
60722;SDS011;46574;52.818;6.516;2023-12-20T04:32:59;19.80;;;4.50;;
60722;SDS011;46574;52.818;6.516;2023-12-20T04:35:25;18.33;;;4.70;;
60722;SDS011;46574;52.818;6.516;2023-12-20T04:37:51;20.45;;;4.60;;
60722;SDS011;46574;52.818;6.516;2023-12-20T04:40:16;23.45;;;4.60;;
60722;SDS011;46574;52.818;6.516;2023-12-20T04:42:42;23.35;;;4.40;;
60722;SDS011;46574;52.818;6.516;2023-12-20T04:45:08;22.23;;;4.85;;
60722;SDS011;46574;52.818;6.516;2023-12-20T04:47:34;17.23;;;4.47;;
60722;SDS011;46574;52.818;6.516;2023-12-20T04:49:59;17.95;;;4.50;;
60722;SDS011;46574;52.818;6.516;2023-12-20T04:52:25;16.27;;;4.38;;
60722;SDS011;46574;52.818;6.516;2023-12-20T04:54:51;21.63;;;4.70;;
60722;SDS011;46574;52.818;6.516;2023-12-20T04:57:16;18.52;;;4.80;;
60722;SDS011;46574;52.818;6.516;2023-12-20T04:59:42;21.45;;;4.53;;
60722;SDS011;46574;52.818;6.516;2023-12-20T05:02:08;19.35;;;4.85;;
60722;SDS011;46574;52.818;6.516;2023-12-20T05:04:34;19.05;;;4.85;;
60722;SDS011;46574;52.818;6.516;2023-12-20T05:06:59;25.50;;;4.50;;
60722;SDS011;46574;52.818;6.516;2023-12-20T05:09:25;24.50;;;5.78;;
60722;SDS011;46574;52.818;6.516;2023-12-20T05:11:50;20.70;;;4.60;;
60722;SDS011;46574;52.818;6.516;2023-12-20T05:14:16;17.52;;;4.85;;
60722;SDS011;46574;52.818;6.516;2023-12-20T05:16:42;18.33;;;4.85;;
60722;SDS011;46574;52.818;6.516;2023-12-20T05:19:07;22.77;;;4.63;;
60722;SDS011;46574;52.818;6.516;2023-12-20T05:21:33;18.17;;;4.93;;
60722;SDS011;46574;52.818;6.516;2023-12-20T05:23:59;21.98;;;5.13;;
60722;SDS011;46574;52.818;6.516;2023-12-20T05:26:25;27.75;;;5.05;;
60722;SDS011;46574;52.818;6.516;2023-12-20T05:28:51;22.45;;;6.28;;
60722;SDS011;46574;52.818;6.516;2023-12-20T05:31:17;17.08;;;4.78;;
60722;SDS011;46574;52.818;6.516;2023-12-20T05:33:43;22.38;;;4.82;;
60722;SDS011;46574;52.818;6.516;2023-12-20T05:36:08;19.08;;;5.10;;
60722;SDS011;46574;52.818;6.516;2023-12-20T05:38:36;15.93;;;4.28;;
60722;SDS011;46574;52.818;6.516;2023-12-20T05:41:02;20.30;;;4.90;;
60722;SDS011;46574;52.818;6.516;2023-12-20T05:43:28;23.60;;;5.22;;
60722;SDS011;46574;52.818;6.516;2023-12-20T05:45:54;18.98;;;5.15;;
60722;SDS011;46574;52.818;6.516;2023-12-20T05:48:20;22.20;;;5.00;;
60722;SDS011;46574;52.818;6.516;2023-12-20T05:50:45;19.17;;;5.07;;
60722;SDS011;46574;52.818;6.516;2023-12-20T05:53:11;19.08;;;5.28;;
60722;SDS011;46574;52.818;6.516;2023-12-20T05:55:37;16.35;;;4.70;;
60722;SDS011;46574;52.818;6.516;2023-12-20T05:58:02;15.55;;;4.30;;
60722;SDS011;46574;52.818;6.516;2023-12-20T06:00:28;18.77;;;5.32;;
60722;SDS011;46574;52.818;6.516;2023-12-20T06:02:54;16.05;;;4.40;;
60722;SDS011;46574;52.818;6.516;2023-12-20T06:05:19;12.05;;;4.07;;
60722;SDS011;46574;52.818;6.516;2023-12-20T06:07:45;20.58;;;4.55;;
60722;SDS011;46574;52.818;6.516;2023-12-20T06:10:13;15.88;;;4.05;;
60722;SDS011;46574;52.818;6.516;2023-12-20T06:12:39;20.05;;;4.65;;
60722;SDS011;46574;52.818;6.516;2023-12-20T06:15:05;14.80;;;4.30;;
60722;SDS011;46574;52.818;6.516;2023-12-20T06:17:31;16.55;;;4.30;;
60722;SDS011;46574;52.818;6.516;2023-12-20T06:19:57;18.58;;;5.30;;
60722;SDS011;46574;52.818;6.516;2023-12-20T06:22:23;14.52;;;3.70;;
60722;SDS011;46574;52.818;6.516;2023-12-20T06:24:48;16.27;;;3.97;;
60722;SDS011;46574;52.818;6.516;2023-12-20T06:27:14;15.20;;;4.28;;
60722;SDS011;46574;52.818;6.516;2023-12-20T06:29:40;17.02;;;3.97;;
60722;SDS011;46574;52.818;6.516;2023-12-20T06:32:06;18.02;;;4.70;;
60722;SDS011;46574;52.818;6.516;2023-12-20T06:34:32;21.13;;;4.50;;
60722;SDS011;46574;52.818;6.516;2023-12-20T06:36:57;18.80;;;5.10;;
60722;SDS011;46574;52.818;6.516;2023-12-20T06:39:23;16.25;;;4.35;;
60722;SDS011;46574;52.818;6.516;2023-12-20T06:41:48;16.50;;;4.03;;
60722;SDS011;46574;52.818;6.516;2023-12-20T06:44:14;13.95;;;4.30;;
60722;SDS011;46574;52.818;6.516;2023-12-20T06:46:40;16.60;;;4.68;;
60722;SDS011;46574;52.818;6.516;2023-12-20T06:49:05;17.75;;;4.07;;
60722;SDS011;46574;52.818;6.516;2023-12-20T06:51:32;18.58;;;4.32;;
60722;SDS011;46574;52.818;6.516;2023-12-20T06:53:57;18.10;;;3.97;;
60722;SDS011;46574;52.818;6.516;2023-12-20T06:56:23;18.58;;;5.15;;
60722;SDS011;46574;52.818;6.516;2023-12-20T06:58:49;14.00;;;3.97;;
60722;SDS011;46574;52.818;6.516;2023-12-20T07:01:15;14.75;;;3.95;;
60722;SDS011;46574;52.818;6.516;2023-12-20T07:03:41;19.77;;;4.38;;
60722;SDS011;46574;52.818;6.516;2023-12-20T07:06:07;17.33;;;4.40;;
60722;SDS011;46574;52.818;6.516;2023-12-20T07:08:33;13.48;;;3.92;;
60722;SDS011;46574;52.818;6.516;2023-12-20T07:10:59;18.67;;;4.47;;
60722;SDS011;46574;52.818;6.516;2023-12-20T07:13:24;16.85;;;3.70;;
60722;SDS011;46574;52.818;6.516;2023-12-20T07:15:50;18.80;;;4.25;;
60722;SDS011;46574;52.818;6.516;2023-12-20T07:18:16;20.95;;;4.60;;
60722;SDS011;46574;52.818;6.516;2023-12-20T07:20:42;16.95;;;4.35;;
60722;SDS011;46574;52.818;6.516;2023-12-20T07:23:08;17.83;;;4.72;;
60722;SDS011;46574;52.818;6.516;2023-12-20T07:25:33;16.35;;;4.38;;
60722;SDS011;46574;52.818;6.516;2023-12-20T07:27:59;15.93;;;3.67;;
60722;SDS011;46574;52.818;6.516;2023-12-20T07:30:25;16.75;;;4.68;;
60722;SDS011;46574;52.818;6.516;2023-12-20T07:32:50;21.50;;;4.47;;
60722;SDS011;46574;52.818;6.516;2023-12-20T07:35:17;20.95;;;4.30;;
60722;SDS011;46574;52.818;6.516;2023-12-20T07:37:43;15.63;;;4.40;;
60722;SDS011;46574;52.818;6.516;2023-12-20T07:40:09;16.60;;;4.60;;
60722;SDS011;46574;52.818;6.516;2023-12-20T07:42:35;20.95;;;4.53;;
60722;SDS011;46574;52.818;6.516;2023-12-20T07:45:01;18.13;;;4.60;;
60722;SDS011;46574;52.818;6.516;2023-12-20T07:47:26;17.92;;;3.85;;
60722;SDS011;46574;52.818;6.516;2023-12-20T07:49:52;18.20;;;4.80;;
60722;SDS011;46574;52.818;6.516;2023-12-20T07:52:18;22.55;;;5.18;;
60722;SDS011;46574;52.818;6.516;2023-12-20T07:54:44;17.23;;;4.90;;
60722;SDS011;46574;52.818;6.516;2023-12-20T07:57:10;21.10;;;5.43;;
60722;SDS011;46574;52.818;6.516;2023-12-20T07:59:36;15.02;;;4.70;;
60722;SDS011;46574;52.818;6.516;2023-12-20T08:02:02;18.55;;;5.10;;
60722;SDS011;46574;52.818;6.516;2023-12-20T08:04:27;17.30;;;4.88;;
60722;SDS011;46574;52.818;6.516;2023-12-20T08:06:53;22.10;;;4.75;;
60722;SDS011;46574;52.818;6.516;2023-12-20T08:09:19;18.25;;;4.25;;
60722;SDS011;46574;52.818;6.516;2023-12-20T08:11:45;13.45;;;4.75;;
60722;SDS011;46574;52.818;6.516;2023-12-20T08:14:11;20.75;;;4.63;;
60722;SDS011;46574;52.818;6.516;2023-12-20T08:16:37;18.00;;;4.13;;
60722;SDS011;46574;52.818;6.516;2023-12-20T08:19:02;20.40;;;4.47;;
60722;SDS011;46574;52.818;6.516;2023-12-20T08:21:28;21.23;;;4.55;;
60722;SDS011;46574;52.818;6.516;2023-12-20T08:23:54;15.77;;;4.38;;
60722;SDS011;46574;52.818;6.516;2023-12-20T08:26:20;15.55;;;4.03;;
60722;SDS011;46574;52.818;6.516;2023-12-20T08:28:47;18.52;;;4.57;;
60722;SDS011;46574;52.818;6.516;2023-12-20T08:31:14;19.90;;;4.40;;
60722;SDS011;46574;52.818;6.516;2023-12-20T08:33:41;19.13;;;5.38;;
60722;SDS011;46574;52.818;6.516;2023-12-20T08:36:10;16.15;;;4.88;;
60722;SDS011;46574;52.818;6.516;2023-12-20T08:38:36;19.05;;;4.25;;
60722;SDS011;46574;52.818;6.516;2023-12-20T08:41:02;22.38;;;4.28;;
60722;SDS011;46574;52.818;6.516;2023-12-20T08:43:39;17.25;;;4.07;;
60722;SDS011;46574;52.818;6.516;2023-12-20T08:46:07;17.20;;;4.68;;
60722;SDS011;46574;52.818;6.516;2023-12-20T08:48:34;18.40;;;4.15;;
60722;SDS011;46574;52.818;6.516;2023-12-20T08:51:00;20.00;;;4.50;;
60722;SDS011;46574;52.818;6.516;2023-12-20T08:53:26;17.35;;;4.70;;
60722;SDS011;46574;52.818;6.516;2023-12-20T08:55:52;15.95;;;4.47;;
60722;SDS011;46574;52.818;6.516;2023-12-20T08:58:17;17.73;;;5.00;;
60722;SDS011;46574;52.818;6.516;2023-12-20T09:00:43;19.25;;;4.10;;
60722;SDS011;46574;52.818;6.516;2023-12-20T09:03:09;17.33;;;4.15;;
60722;SDS011;46574;52.818;6.516;2023-12-20T09:05:34;19.90;;;4.50;;
60722;SDS011;46574;52.818;6.516;2023-12-20T09:08:00;19.08;;;4.72;;
60722;SDS011;46574;52.818;6.516;2023-12-20T09:10:25;17.70;;;4.25;;
60722;SDS011;46574;52.818;6.516;2023-12-20T09:12:52;17.33;;;4.32;;
60722;SDS011;46574;52.818;6.516;2023-12-20T09:15:25;18.30;;;3.90;;
60722;SDS011;46574;52.818;6.516;2023-12-20T09:17:51;16.40;;;4.63;;
60722;SDS011;46574;52.818;6.516;2023-12-20T09:20:17;19.58;;;4.70;;
60722;SDS011;46574;52.818;6.516;2023-12-20T09:22:43;17.63;;;4.32;;
60722;SDS011;46574;52.818;6.516;2023-12-20T09:25:12;10.85;;;4.05;;
60722;SDS011;46574;52.818;6.516;2023-12-20T09:27:38;14.98;;;4.88;;
60722;SDS011;46574;52.818;6.516;2023-12-20T09:30:04;17.60;;;4.22;;
60722;SDS011;46574;52.818;6.516;2023-12-20T09:32:31;14.00;;;3.90;;
60722;SDS011;46574;52.818;6.516;2023-12-20T09:34:57;14.02;;;3.95;;
60722;SDS011;46574;52.818;6.516;2023-12-20T09:37:23;17.65;;;4.80;;
60722;SDS011;46574;52.818;6.516;2023-12-20T09:39:51;16.98;;;3.95;;
60722;SDS011;46574;52.818;6.516;2023-12-20T09:42:17;12.70;;;3.72;;
60722;SDS011;46574;52.818;6.516;2023-12-20T09:45:03;13.80;;;4.10;;
60722;SDS011;46574;52.818;6.516;2023-12-20T09:47:32;19.25;;;4.63;;
60722;SDS011;46574;52.818;6.516;2023-12-20T09:49:58;8.77;;;2.50;;
60722;SDS011;46574;52.818;6.516;2023-12-20T09:52:24;7.68;;;1.95;;
60722;SDS011;46574;52.818;6.516;2023-12-20T09:54:50;9.77;;;2.00;;
60722;SDS011;46574;52.818;6.516;2023-12-20T09:57:18;7.88;;;2.13;;
60722;SDS011;46574;52.818;6.516;2023-12-20T09:59:43;7.85;;;1.90;;
60722;SDS011;46574;52.818;6.516;2023-12-20T10:02:11;9.73;;;2.13;;
60722;SDS011;46574;52.818;6.516;2023-12-20T10:04:41;8.85;;;2.30;;
60722;SDS011;46574;52.818;6.516;2023-12-20T10:07:14;7.50;;;1.95;;
60722;SDS011;46574;52.818;6.516;2023-12-20T10:09:40;7.60;;;2.22;;
60722;SDS011;46574;52.818;6.516;2023-12-20T10:12:06;5.90;;;1.40;;
60722;SDS011;46574;52.818;6.516;2023-12-20T10:14:33;8.38;;;1.45;;
60722;SDS011;46574;52.818;6.516;2023-12-20T10:17:02;6.55;;;1.45;;
60722;SDS011;46574;52.818;6.516;2023-12-20T10:19:29;6.28;;;1.40;;
60722;SDS011;46574;52.818;6.516;2023-12-20T10:21:55;7.40;;;1.38;;
60722;SDS011;46574;52.818;6.516;2023-12-20T10:24:20;5.95;;;1.60;;
60722;SDS011;46574;52.818;6.516;2023-12-20T10:26:46;5.75;;;1.30;;
60722;SDS011;46574;52.818;6.516;2023-12-20T10:29:12;4.22;;;1.38;;
60722;SDS011;46574;52.818;6.516;2023-12-20T10:31:37;5.13;;;1.30;;
60722;SDS011;46574;52.818;6.516;2023-12-20T10:34:07;7.60;;;1.77;;
60722;SDS011;46574;52.818;6.516;2023-12-20T10:36:33;4.32;;;1.13;;
60722;SDS011;46574;52.818;6.516;2023-12-20T10:38:59;6.28;;;1.80;;
60722;SDS011;46574;52.818;6.516;2023-12-20T10:41:30;8.40;;;1.65;;
60722;SDS011;46574;52.818;6.516;2023-12-20T10:43:58;7.88;;;1.65;;
60722;SDS011;46574;52.818;6.516;2023-12-20T10:46:28;7.55;;;1.60;;
60722;SDS011;46574;52.818;6.516;2023-12-20T10:48:55;8.00;;;1.90;;
60722;SDS011;46574;52.818;6.516;2023-12-20T10:51:22;6.28;;;1.55;;
60722;SDS011;46574;52.818;6.516;2023-12-20T10:53:49;7.65;;;1.80;;
60722;SDS011;46574;52.818;6.516;2023-12-20T10:56:18;7.75;;;1.63;;
60722;SDS011;46574;52.818;6.516;2023-12-20T11:01:12;8.48;;;1.83;;
60722;SDS011;46574;52.818;6.516;2023-12-20T11:03:41;5.43;;;1.60;;
60722;SDS011;46574;52.818;6.516;2023-12-20T11:09:10;4.80;;;1.73;;
60722;SDS011;46574;52.818;6.516;2023-12-20T11:11:59;5.32;;;1.40;;
60722;SDS011;46574;52.818;6.516;2023-12-20T11:14:47;6.65;;;1.58;;
60722;SDS011;46574;52.818;6.516;2023-12-20T11:22:21;5.65;;;1.60;;
60722;SDS011;46574;52.818;6.516;2023-12-20T11:24:48;5.45;;;2.00;;
60722;SDS011;46574;52.818;6.516;2023-12-20T11:27:15;7.93;;;1.52;;
60722;SDS011;46574;52.818;6.516;2023-12-20T11:29:41;6.63;;;1.90;;
60722;SDS011;46574;52.818;6.516;2023-12-20T11:34:53;7.07;;;1.75;;
60722;SDS011;46574;52.818;6.516;2023-12-20T11:37:28;6.63;;;1.70;;
60722;SDS011;46574;52.818;6.516;2023-12-20T11:40:00;8.13;;;1.67;;
60722;SDS011;46574;52.818;6.516;2023-12-20T11:42:37;6.45;;;2.15;;
60722;SDS011;46574;52.818;6.516;2023-12-20T11:45:04;8.02;;;1.95;;
60722;SDS011;46574;52.818;6.516;2023-12-20T11:47:33;8.63;;;1.85;;
60722;SDS011;46574;52.818;6.516;2023-12-20T11:50:00;5.78;;;1.60;;
60722;SDS011;46574;52.818;6.516;2023-12-20T11:52:28;7.32;;;2.20;;
60722;SDS011;46574;52.818;6.516;2023-12-20T11:54:54;6.07;;;1.83;;
60722;SDS011;46574;52.818;6.516;2023-12-20T11:57:20;8.90;;;2.15;;
60722;SDS011;46574;52.818;6.516;2023-12-20T11:59:45;8.40;;;2.25;;
60722;SDS011;46574;52.818;6.516;2023-12-20T12:02:11;9.90;;;2.28;;
60722;SDS011;46574;52.818;6.516;2023-12-20T12:04:37;9.18;;;2.10;;
60722;SDS011;46574;52.818;6.516;2023-12-20T12:07:03;12.50;;;2.17;;
60722;SDS011;46574;52.818;6.516;2023-12-20T12:09:29;6.22;;;2.33;;
60722;SDS011;46574;52.818;6.516;2023-12-20T12:11:54;10.35;;;2.05;;
60722;SDS011;46574;52.818;6.516;2023-12-20T12:14:20;8.70;;;2.00;;
60722;SDS011;46574;52.818;6.516;2023-12-20T12:16:46;9.95;;;2.00;;
60722;SDS011;46574;52.818;6.516;2023-12-20T12:19:21;8.73;;;2.63;;
60722;SDS011;46574;52.818;6.516;2023-12-20T12:21:48;5.85;;;1.90;;
60722;SDS011;46574;52.818;6.516;2023-12-20T12:24:14;7.00;;;2.08;;
60722;SDS011;46574;52.818;6.516;2023-12-20T12:26:40;6.85;;;2.53;;
60722;SDS011;46574;52.818;6.516;2023-12-20T12:29:09;11.43;;;2.63;;
60722;SDS011;46574;52.818;6.516;2023-12-20T12:31:34;8.90;;;1.88;;
60722;SDS011;46574;52.818;6.516;2023-12-20T12:34:00;7.32;;;2.10;;
60722;SDS011;46574;52.818;6.516;2023-12-20T12:36:27;7.90;;;2.20;;
60722;SDS011;46574;52.818;6.516;2023-12-20T12:38:55;6.43;;;1.85;;
60722;SDS011;46574;52.818;6.516;2023-12-20T12:41:22;5.03;;;1.63;;
60722;SDS011;46574;52.818;6.516;2023-12-20T12:43:48;6.13;;;1.63;;
60722;SDS011;46574;52.818;6.516;2023-12-20T12:46:14;9.00;;;1.80;;
60722;SDS011;46574;52.818;6.516;2023-12-20T12:48:39;5.43;;;1.50;;
60722;SDS011;46574;52.818;6.516;2023-12-20T12:51:05;8.15;;;1.85;;
60722;SDS011;46574;52.818;6.516;2023-12-20T12:53:32;7.60;;;1.80;;
60722;SDS011;46574;52.818;6.516;2023-12-20T12:55:57;7.38;;;2.35;;
60722;SDS011;46574;52.818;6.516;2023-12-20T12:58:23;8.45;;;1.90;;
60722;SDS011;46574;52.818;6.516;2023-12-20T13:00:50;7.57;;;1.80;;
60722;SDS011;46574;52.818;6.516;2023-12-20T13:03:16;8.10;;;1.92;;
60722;SDS011;46574;52.818;6.516;2023-12-20T13:05:41;6.45;;;1.40;;
60722;SDS011;46574;52.818;6.516;2023-12-20T13:08:07;6.85;;;1.75;;
60722;SDS011;46574;52.818;6.516;2023-12-20T13:10:34;7.07;;;1.50;;
60722;SDS011;46574;52.818;6.516;2023-12-20T13:13:00;5.53;;;1.75;;
60722;SDS011;46574;52.818;6.516;2023-12-20T13:15:25;7.70;;;1.75;;
60722;SDS011;46574;52.818;6.516;2023-12-20T13:17:51;9.18;;;2.30;;
60722;SDS011;46574;52.818;6.516;2023-12-20T13:20:17;6.68;;;1.63;;
60722;SDS011;46574;52.818;6.516;2023-12-20T13:22:42;7.25;;;1.80;;
60722;SDS011;46574;52.818;6.516;2023-12-20T13:25:08;7.43;;;2.15;;
60722;SDS011;46574;52.818;6.516;2023-12-20T13:27:33;7.05;;;1.23;;
60722;SDS011;46574;52.818;6.516;2023-12-20T13:29:59;4.93;;;1.33;;
60722;SDS011;46574;52.818;6.516;2023-12-20T13:32:25;8.38;;;2.13;;
60722;SDS011;46574;52.818;6.516;2023-12-20T13:34:50;5.30;;;1.92;;
60722;SDS011;46574;52.818;6.516;2023-12-20T13:37:16;9.88;;;1.92;;
60722;SDS011;46574;52.818;6.516;2023-12-20T13:39:42;6.32;;;2.10;;
60722;SDS011;46574;52.818;6.516;2023-12-20T13:42:07;8.38;;;1.95;;
60722;SDS011;46574;52.818;6.516;2023-12-20T13:44:33;8.13;;;1.70;;
60722;SDS011;46574;52.818;6.516;2023-12-20T13:46:59;5.60;;;2.10;;
60722;SDS011;46574;52.818;6.516;2023-12-20T13:49:24;8.20;;;1.40;;
60722;SDS011;46574;52.818;6.516;2023-12-20T13:51:50;9.23;;;3.00;;
60722;SDS011;46574;52.818;6.516;2023-12-20T13:54:16;8.18;;;2.10;;
60722;SDS011;46574;52.818;6.516;2023-12-20T13:59:11;6.80;;;1.58;;
60722;SDS011;46574;52.818;6.516;2023-12-20T14:01:37;9.35;;;2.03;;
60722;SDS011;46574;52.818;6.516;2023-12-20T14:04:03;6.15;;;1.60;;
60722;SDS011;46574;52.818;6.516;2023-12-20T14:06:29;4.03;;;1.35;;
60722;SDS011;46574;52.818;6.516;2023-12-20T14:08:54;4.18;;;1.50;;
60722;SDS011;46574;52.818;6.516;2023-12-20T14:11:20;5.10;;;1.40;;
60722;SDS011;46574;52.818;6.516;2023-12-20T14:13:46;8.73;;;1.83;;
60722;SDS011;46574;52.818;6.516;2023-12-20T14:16:12;6.03;;;1.88;;
60722;SDS011;46574;52.818;6.516;2023-12-20T14:18:37;7.57;;;1.80;;
60722;SDS011;46574;52.818;6.516;2023-12-20T14:21:05;4.55;;;2.10;;
60722;SDS011;46574;52.818;6.516;2023-12-20T14:23:32;6.90;;;1.42;;
60722;SDS011;46574;52.818;6.516;2023-12-20T14:25:58;7.10;;;1.42;;
60722;SDS011;46574;52.818;6.516;2023-12-20T14:28:24;5.97;;;1.70;;
60722;SDS011;46574;52.818;6.516;2023-12-20T14:30:50;7.30;;;1.67;;
60722;SDS011;46574;52.818;6.516;2023-12-20T14:33:16;4.18;;;1.52;;
60722;SDS011;46574;52.818;6.516;2023-12-20T14:35:42;6.78;;;1.73;;
60722;SDS011;46574;52.818;6.516;2023-12-20T14:38:09;7.47;;;1.80;;
60722;SDS011;46574;52.818;6.516;2023-12-20T14:40:35;9.15;;;2.00;;
60722;SDS011;46574;52.818;6.516;2023-12-20T14:43:00;6.32;;;2.33;;
60722;SDS011;46574;52.818;6.516;2023-12-20T14:45:29;9.15;;;2.33;;
60722;SDS011;46574;52.818;6.516;2023-12-20T14:47:54;5.70;;;2.33;;
60722;SDS011;46574;52.818;6.516;2023-12-20T14:50:20;6.13;;;2.00;;
60722;SDS011;46574;52.818;6.516;2023-12-20T14:52:46;7.03;;;2.47;;